Time;durP1;ratioP1;P1;durP2;ratioP2;P2;SDS_P1;SDS_P2;PMS_P1;PMS_P2;Temp;Humidity;BMP_temperature;BMP_pressure;BME280_temperature;BME280_humidity;BME280_pressure;Samples;Min_cycle;Max_cycle;Signal;HPM_P1;HPM_P2
2023/10/16 02:51:16;;;;;;;;;;;;;;;;;;1044493;28;20528;-73
2023/10/16 02:51:47;;;;;;;2.58;2.28;;;;;;;;;;1045246;28;20327;-73
2023/10/16 02:52:18;;;;;;;1.10;1.10;;;;;;;;;;1044988;28;20037;-73
2023/10/16 02:52:48;;;;;;;1.55;1.23;;;;;;;;;;1045783;28;20135;-73
2023/10/16 02:53:24;;;;;;;4.57;1.95;;;;;;;;;;1044404;28;20055;-71
2023/10/16 02:53:54;;;;;;;1.67;1.45;;;;;;;;;;1043710;28;20028;-73
2023/10/16 02:54:25;;;;;;;8.32;3.08;;;;;;;;;;1042080;28;20135;-73
2023/10/16 02:55:00;;;;;;;1.48;1.38;;;;;;;;;;1041291;28;20060;-74
2023/10/16 02:55:30;;;;;;;2.92;1.02;;;;;;;;;;1036337;28;20050;-73
2023/10/16 02:56:14;;;;;;;1.65;0.68;;;;;;;;;;1039374;28;20077;-74
2023/10/16 02:56:45;;;;;;;7.50;1.48;;;;;;;;;;1038564;28;20096;-74
2023/10/16 02:57:16;;;;;;;9.63;6.32;;;;;;;;;;1042604;28;20485;-74
2023/10/16 02:57:50;;;;;;;3.72;1.38;;;;;;;;;;1045692;28;20048;-74
2023/10/16 02:58:24;;;;;;;2.45;1.42;;;;;;;;;;1042376;28;20094;-74
2023/10/16 02:58:55;;;;;;;1.10;1.10;;;;;;;;;;1036954;28;20066;-73
2023/10/16 02:59:26;;;;;;;3.38;2.58;;;;;;;;;;1036645;28;20396;-74
2023/10/16 02:59:57;;;;;;;1.92;1.75;;;;;;;;;;1041124;28;20123;-74
2023/10/16 03:00:34;;;;;;;5.68;4.90;;;;;;;;;;1042908;28;20024;-73
2023/10/16 03:01:06;;;;;;;2.58;2.03;;;;;;;;;;1043375;28;20755;-73
2023/10/16 03:01:38;;;;;;;1.98;1.77;;;;;;;;;;1044392;28;20031;-74
2023/10/16 03:02:17;;;;;;;1.88;1.15;;;;;;;;;;1043718;28;20128;-73
2023/10/16 03:02:48;;;;;;;2.00;1.85;;;;;;;;;;1045943;28;20034;-73
2023/10/16 03:03:18;;;;;;;0.75;0.75;;;;;;;;;;1043967;28;20036;-71
2023/10/16 03:03:50;;;;;;;1.48;0.98;;;;;;;;;;1044773;28;20028;-71
2023/10/16 03:04:23;;;;;;;2.85;2.60;;;;;;;;;;1044797;28;20121;-72
2023/10/16 03:05:10;;;;;;;0.82;0.82;;;;;;;;;;1043777;28;20035;-72
2023/10/16 03:05:44;;;;;;;0.60;0.60;;;;;;;;;;1044448;28;20546;-72
2023/10/16 03:06:15;;;;;;;0.63;0.63;;;;;;;;;;1045865;28;20028;-72
2023/10/16 03:06:48;;;;;;;2.33;1.50;;;;;;;;;;1042426;28;20415;-72
2023/10/16 03:07:22;;;;;;;2.50;1.58;;;;;;;;;;1046230;28;20082;-73
2023/10/16 03:07:54;;;;;;;1.55;1.27;;;;;;;;;;1048854;28;20013;-73
2023/10/16 03:08:31;;;;;;;3.80;2.67;;;;;;;;;;1047201;28;20024;-73
2023/10/16 03:09:28;;;;;;;1.08;1.00;;;;;;;;;;1041772;28;20115;-73
2023/10/16 03:10:08;;;;;;;1.10;0.68;;;;;;;;;;1043813;28;20453;-73
2023/10/16 03:10:45;;;;;;;1.15;1.15;;;;;;;;;;1042891;28;20029;-72
2023/10/16 03:11:20;;;;;;;3.40;0.93;;;;;;;;;;1042118;28;20057;-72
2023/10/16 03:12:10;;;;;;;2.80;2.45;;;;;;;;;;1041717;28;20154;-73
2023/10/16 03:12:42;;;;;;;0.90;0.90;;;;;;;;;;1044701;28;20028;-72
2023/10/16 03:13:14;;;;;;;0.52;0.52;;;;;;;;;;1044042;28;20382;-72
2023/10/16 03:13:52;;;;;;;1.98;1.42;;;;;;;;;;1040360;28;20091;-72
2023/10/16 03:14:28;;;;;;;1.65;1.55;;;;;;;;;;1041152;28;20036;-72
2023/10/16 03:15:00;;;;;;;0.50;0.50;;;;;;;;;;1042360;28;20029;-73
2023/10/16 03:15:42;;;;;;;3.75;2.13;;;;;;;;;;1045742;28;20040;-73
2023/10/16 03:16:18;;;;;;;2.22;2.05;;;;;;;;;;1044071;28;20452;-72
2023/10/16 03:16:50;;;;;;;1.05;1.05;;;;;;;;;;1043669;28;20724;-73
2023/10/16 03:17:54;;;;;;;1.63;1.40;;;;;;;;;;1042401;28;20028;-72
2023/10/16 03:18:22;;;;;;;3.30;2.85;;;;;;;;;;1041789;28;20039;-73
2023/10/16 03:19:02;;;;;;;0.85;0.85;;;;;;;;;;1042528;28;20043;-74
2023/10/16 03:19:33;;;;;;;0.90;0.90;;;;;;;;;;1042495;28;20499;-72
2023/10/16 03:20:09;;;;;;;0.68;0.68;;;;;;;;;;1039139;28;20028;-72
2023/10/16 03:20:40;;;;;;;2.88;2.22;;;;;;;;;;1040989;28;20600;-73
2023/10/16 03:21:45;;;;;;;0.40;0.40;;;;;;;;;;1042794;28;20033;-73
2023/10/16 03:22:16;;;;;;;4.38;2.15;;;;;;;;;;1045645;28;20035;-73
2023/10/16 03:22:50;;;;;;;0.98;0.95;;;;;;;;;;1044126;28;20033;-74
2023/10/16 03:23:21;;;;;;;2.72;2.53;;;;;;;;;;1041713;28;20494;-73
2023/10/16 03:23:52;;;;;;;2.90;2.15;;;;;;;;;;1043070;28;20075;-72
2023/10/16 03:24:28;;;;;;;6.05;1.98;;;;;;;;;;1041951;28;20404;-73
2023/10/16 03:25:24;;;;;;;0.73;0.73;;;;;;;;;;1041426;28;20301;-73
2023/10/16 03:25:59;;;;;;;1.30;1.20;;;;;;;;;;1037035;28;20030;-73
2023/10/16 03:26:42;;;;;;;1.13;1.05;;;;;;;;;;1043339;28;20021;-73
2023/10/16 03:27:28;;;;;;;10.52;2.50;;;;;;;;;;1041212;28;20021;-73
2023/10/16 03:28:01;;;;;;;0.60;0.60;;;;;;;;;;1041570;28;20470;-74
2023/10/16 03:28:33;;;;;;;2.85;1.60;;;;;;;;;;1038559;28;20026;-73
2023/10/16 03:29:04;;;;;;;3.63;1.75;;;;;;;;;;1036266;28;20040;-74
2023/10/16 03:29:36;;;;;;;0.90;0.90;;;;;;;;;;1036435;28;20519;-73
2023/10/16 03:30:07;;;;;;;1.50;1.27;;;;;;;;;;1032216;28;20034;-73
2023/10/16 03:30:42;;;;;;;0.80;0.80;;;;;;;;;;1034648;28;20037;-74
2023/10/16 03:31:14;;;;;;;1.83;1.73;;;;;;;;;;1036229;28;20096;-74
2023/10/16 03:31:46;;;;;;;4.45;1.48;;;;;;;;;;1041287;28;20836;-74
2023/10/16 03:32:18;;;;;;;0.75;0.75;;;;;;;;;;1037207;28;20504;-74
2023/10/16 03:32:49;;;;;;;3.08;1.67;;;;;;;;;;1037037;28;20033;-71
2023/10/16 03:33:20;;;;;;;2.45;1.45;;;;;;;;;;1040038;28;20076;-71
2023/10/16 03:33:52;;;;;;;2.38;1.40;;;;;;;;;;1039773;28;21262;-73
2023/10/16 03:34:22;;;;;;;4.18;3.85;;;;;;;;;;1038723;28;20009;-73
2023/10/16 03:34:57;;;;;;;2.05;1.95;;;;;;;;;;1037822;28;20068;-72
2023/10/16 03:35:30;;;;;;;2.38;1.05;;;;;;;;;;1038119;28;20813;-73
2023/10/16 03:36:02;;;;;;;1.23;1.17;;;;;;;;;;1041540;28;20036;-72
2023/10/16 03:36:36;;;;;;;1.85;1.65;;;;;;;;;;1038937;28;20022;-72
2023/10/16 03:37:10;;;;;;;3.50;3.15;;;;;;;;;;1042128;28;20033;-72
2023/10/16 03:37:42;;;;;;;0.38;0.38;;;;;;;;;;1039104;28;20060;-73
2023/10/16 03:38:26;;;;;;;1.10;1.08;;;;;;;;;;1034443;28;20033;-73
2023/10/16 03:38:59;;;;;;;0.82;0.82;;;;;;;;;;1038159;28;20570;-73
2023/10/16 03:39:31;;;;;;;0.82;0.82;;;;;;;;;;1036494;28;20053;-72
2023/10/16 03:40:11;;;;;;;3.80;3.47;;;;;;;;;;1041825;28;20493;-72
2023/10/16 03:40:43;;;;;;;0.55;0.55;;;;;;;;;;1041110;28;20025;-73
2023/10/16 03:41:51;;;;;;;1.55;1.45;;;;;;;;;;1041683;28;20113;-74
2023/10/16 03:42:23;;;;;;;4.75;1.20;;;;;;;;;;1037332;28;20100;-73
2023/10/16 03:42:55;;;;;;;2.15;2.00;;;;;;;;;;1039442;28;20037;-74
2023/10/16 03:43:25;;;;;;;4.35;2.97;;;;;;;;;;1042013;28;20025;-73
2023/10/16 03:44:06;;;;;;;13.52;2.15;;;;;;;;;;1041305;28;20488;-72
2023/10/16 03:44:41;;;;;;;5.25;3.33;;;;;;;;;;1042379;28;20028;-71
2023/10/16 03:45:13;;;;;;;1.27;0.80;;;;;;;;;;1043872;28;20059;-73
2023/10/16 03:45:44;;;;;;;2.38;2.17;;;;;;;;;;1043653;28;20021;-73
2023/10/16 03:46:14;;;;;;;4.28;2.85;;;;;;;;;;1041334;28;20428;-73
2023/10/16 03:46:46;;;;;;;3.30;2.40;;;;;;;;;;1039354;28;20042;-73
2023/10/16 03:47:24;;;;;;;1.75;0.65;;;;;;;;;;1036130;28;20033;-73
2023/10/16 03:48:16;;;;;;;1.48;1.38;;;;;;;;;;1039317;28;20076;-73
2023/10/16 03:48:47;;;;;;;8.40;3.67;;;;;;;;;;1043669;28;20056;-73
2023/10/16 03:49:18;;;;;;;1.75;0.90;;;;;;;;;;1043223;28;20510;-73
2023/10/16 03:49:48;;;;;;;5.78;2.92;;;;;;;;;;1044338;28;20033;-73
2023/10/16 03:50:34;;;;;;;4.35;2.15;;;;;;;;;;1042570;28;20021;-73
2023/10/16 03:51:06;;;;;;;12.25;2.38;;;;;;;;;;1041655;28;20595;-73
2023/10/16 03:51:38;;;;;;;2.80;2.08;;;;;;;;;;1042354;28;20120;-73
2023/10/16 03:52:08;;;;;;;2.92;1.60;;;;;;;;;;1043036;28;20033;-72
2023/10/16 03:52:39;;;;;;;4.28;1.63;;;;;;;;;;1041161;28;20466;-73
2023/10/16 03:53:13;;;;;;;2.38;2.00;;;;;;;;;;1042441;28;20377;-73
2023/10/16 03:53:56;;;;;;;5.50;2.95;;;;;;;;;;1042440;28;20025;-73
2023/10/16 03:54:31;;;;;;;9.93;2.40;;;;;;;;;;1044953;28;20472;-73
2023/10/16 03:55:20;;;;;;;1.98;1.23;;;;;;;;;;1045184;28;20457;-73
2023/10/16 03:55:51;;;;;;;1.15;0.95;;;;;;;;;;1042415;28;20443;-72
2023/10/16 03:56:24;;;;;;;7.50;2.67;;;;;;;;;;1040881;28;20025;-72
2023/10/16 03:56:59;;;;;;;3.25;2.03;;;;;;;;;;1035995;28;20056;-72
2023/10/16 03:57:30;;;;;;;9.27;2.80;;;;;;;;;;1039588;28;20654;-72
2023/10/16 03:58:01;;;;;;;1.77;1.58;;;;;;;;;;1037392;28;20025;-72
2023/10/16 03:58:40;;;;;;;0.63;0.63;;;;;;;;;;1034202;28;20048;-74
2023/10/16 03:59:15;;;;;;;1.55;1.45;;;;;;;;;;1039143;28;20172;-73
2023/10/16 03:59:47;;;;;;;1.60;0.80;;;;;;;;;;1036573;28;20025;-73
2023/10/16 04:00:19;;;;;;;1.90;1.40;;;;;;;;;;1033652;28;20049;-72
2023/10/16 04:00:59;;;;;;;3.58;3.25;;;;;;;;;;1038854;28;20030;-73
2023/10/16 04:01:30;;;;;;;3.25;1.55;;;;;;;;;;1043025;28;20025;-75
2023/10/16 04:02:04;;;;;;;6.47;1.50;;;;;;;;;;1040314;28;20033;-73
2023/10/16 04:02:35;;;;;;;8.20;2.28;;;;;;;;;;1040504;28;20842;-73
2023/10/16 04:03:08;;;;;;;1.17;1.17;;;;;;;;;;1039985;28;20031;-73
2023/10/16 04:03:50;;;;;;;2.67;1.65;;;;;;;;;;1041233;28;20029;-73
2023/10/16 04:04:24;;;;;;;9.18;2.70;;;;;;;;;;1040878;28;20028;-72
2023/10/16 04:04:55;;;;;;;2.35;2.15;;;;;;;;;;1040883;28;20079;-72
2023/10/16 04:06:21;;;;;;;2.15;1.98;;;;;;;;;;1040932;28;20037;-73
2023/10/16 04:06:56;;;;;;;0.45;0.45;;;;;;;;;;1041211;28;20028;-72
2023/10/16 04:07:27;;;;;;;2.28;2.08;;;;;;;;;;1039590;28;20123;-72
2023/10/16 04:07:58;;;;;;;10.02;2.42;;;;;;;;;;1041888;28;20021;-74
2023/10/16 04:08:30;;;;;;;2.95;1.48;;;;;;;;;;1042286;28;20476;-73
2023/10/16 04:09:04;;;;;;;7.47;3.90;;;;;;;;;;1038976;28;20032;-73
2023/10/16 04:09:38;;;;;;;3.13;1.05;;;;;;;;;;1038041;28;20043;-74
2023/10/16 04:10:21;;;;;;;3.35;2.35;;;;;;;;;;1036558;28;20028;-73
2023/10/16 04:10:56;;;;;;;8.23;2.75;;;;;;;;;;1038632;28;20045;-73
2023/10/16 04:11:32;;;;;;;1.75;1.27;;;;;;;;;;1040962;28;20025;-73
2023/10/16 04:12:06;;;;;;;3.45;2.05;;;;;;;;;;1039821;28;20230;-73
2023/10/16 04:12:37;;;;;;;1.85;1.65;;;;;;;;;;1039354;28;20071;-74
2023/10/16 04:13:08;;;;;;;26.02;4.03;;;;;;;;;;1040662;28;20086;-71
2023/10/16 04:13:47;;;;;;;3.35;3.05;;;;;;;;;;1041472;28;20033;-73
2023/10/16 04:14:18;;;;;;;1.85;1.15;;;;;;;;;;1039336;28;20040;-72
2023/10/16 04:15:04;;;;;;;6.97;1.48;;;;;;;;;;1037086;28;20458;-72
2023/10/16 04:16:13;;;;;;;4.25;2.40;;;;;;;;;;1039389;28;20025;-73
2023/10/16 04:16:54;;;;;;;4.88;1.95;;;;;;;;;;1041407;28;20432;-73
2023/10/16 04:17:26;;;;;;;2.53;0.70;;;;;;;;;;1039998;28;20083;-72
2023/10/16 04:18:04;;;;;;;1.85;1.58;;;;;;;;;;1035247;28;20041;-73
2023/10/16 04:18:41;;;;;;;2.97;1.50;;;;;;;;;;1036473;28;20820;-72
2023/10/16 04:19:59;;;;;;;2.72;2.17;;;;;;;;;;1038147;28;20034;-73
2023/10/16 04:20:47;;;;;;;2.55;1.10;;;;;;;;;;1037769;28;20504;-72
2023/10/16 04:21:37;;;;;;;2.58;1.88;;;;;;;;;;1032328;28;20921;-72
2023/10/16 04:22:16;;;;;;;3.45;2.53;;;;;;;;;;1038132;28;20032;-73
2023/10/16 04:22:57;;;;;;;1.15;0.80;;;;;;;;;;1040252;28;20245;-73
2023/10/16 04:24:59;;;;;;;3.83;1.52;;;;;;;;;;1040422;28;20035;-73
2023/10/16 04:25:35;;;;;;;1.17;1.05;;;;;;;;;;1039541;28;20147;-74
2023/10/16 04:27:33;;;;;;;2.05;1.33;;;;;;;;;;1037768;28;20352;-74
2023/10/16 04:29:20;;;;;;;0.57;0.55;;;;;;;;;;1039068;28;20037;-74
2023/10/16 04:30:52;;;;;;;12.85;5.40;;;;;;;;;;1034387;28;19913;-73
2023/10/16 04:34:13;;;;;;;1.70;1.58;;;;;;;;;;1039288;28;20065;-73
2023/10/16 04:34:52;;;;;;;3.60;3.28;;;;;;;;;;1038325;28;20033;-74
2023/10/16 04:36:52;;;;;;;1.40;1.30;;;;;;;;;;1037551;28;20554;-74
2023/10/16 04:37:24;;;;;;;1.25;0.80;;;;;;;;;;1038763;28;20037;-73
2023/10/16 04:37:49;;;;;;;12.88;1.77;;;;;;;;;;1041395;28;20021;-73
2023/10/16 04:38:52;;;;;;;2.55;1.65;;;;;;;;;;1039775;28;20036;-73
2023/10/16 04:42:50;;;;;;;3.58;2.30;;;;;;;;;;1041493;28;20610;-73
2023/10/16 04:43:03;;;;;;;1.40;1.20;;;;;;;;;;1037225;28;20517;-73
2023/10/16 04:44:22;;;;;;;0.73;0.73;;;;;;;;;;1041982;28;20067;-73
2023/10/16 04:45:38;;;;;;;4.57;2.35;;;;;;;;;;1041170;28;20509;-73
2023/10/16 04:47:06;;;;;;;1.20;1.10;;;;;;;;;;1037531;28;20152;-73
2023/10/16 04:47:48;;;;;;;3.08;1.48;;;;;;;;;;1036870;28;20629;-73
2023/10/16 04:48:39;;;;;;;0.10;0.10;;;;;;;;;;1042696;28;20033;-73
2023/10/16 04:49:14;;;;;;;3.22;1.05;;;;;;;;;;1041697;28;20154;-73
2023/10/16 04:49:59;;;;;;;5.78;1.02;;;;;;;;;;1041434;28;20112;-73
2023/10/16 04:51:15;;;;;;;11.15;4.22;;;;;;;;;;1039157;28;20020;-73
2023/10/16 04:52:06;;;;;;;2.15;0.82;;;;;;;;;;1040294;28;20036;-72
2023/10/16 04:53:25;;;;;;;0.28;0.28;;;;;;;;;;1039700;28;20033;-74
2023/10/16 04:53:59;;;;;;;4.03;3.53;;;;;;;;;;1038717;28;20025;-73
2023/10/16 04:56:41;;;;;;;22.95;3.67;;;;;;;;;;1036196;28;20724;-73
2023/10/16 04:57:47;;;;;;;3.20;2.33;;;;;;;;;;1039433;28;20025;-73
2023/10/16 04:58:59;;;;;;;2.42;2.22;;;;;;;;;;1039146;28;20111;-74
2023/10/16 05:01:33;;;;;;;0.80;0.80;;;;;;;;;;1030247;28;20509;-74
2023/10/16 05:02:11;;;;;;;1.42;1.17;;;;;;;;;;1038027;28;20033;-73
2023/10/16 05:02:52;;;;;;;1.65;1.55;;;;;;;;;;1038867;28;20029;-73
2023/10/16 05:04:49;;;;;;;1.45;1.35;;;;;;;;;;1039237;28;20403;-73
2023/10/16 05:06:03;;;;;;;1.48;1.38;;;;;;;;;;1037757;28;20987;-72
2023/10/16 05:07:17;;;;;;;17.08;3.28;;;;;;;;;;1038559;28;20102;-73
2023/10/16 05:07:53;;;;;;;2.00;1.35;;;;;;;;;;1037641;28;20374;-71
2023/10/16 05:08:49;;;;;;;2.17;2.05;;;;;;;;;;1038736;28;20029;-72
2023/10/16 05:10:51;;;;;;;2.08;1.90;;;;;;;;;;1038099;28;20115;-73
2023/10/16 05:11:27;;;;;;;0.75;0.75;;;;;;;;;;1036271;28;20556;-72
2023/10/16 05:18:11;;;;;;;8.15;5.70;;;;;;;;;;1039250;28;20036;-73
2023/10/16 05:18:51;;;;;;;19.58;2.35;;;;;;;;;;1037707;28;20029;-73
2023/10/16 05:20:13;;;;;;;3.70;2.15;;;;;;;;;;1033569;28;20409;-73
2023/10/16 05:21:18;;;;;;;2.53;1.08;;;;;;;;;;1032524;28;20026;-74
2023/10/16 06:14:34;;;;;;;2.85;2.35;;;;;;;;;;1038742;28;20021;-74
2023/10/16 06:15:07;;;;;;;4.15;3.80;;;;;;;;;;1036178;28;20036;-73
2023/10/16 06:15:38;;;;;;;3.08;2.72;;;;;;;;;;1038358;28;20048;-73
2023/10/16 06:16:17;;;;;;;0.65;0.60;;;;;;;;;;1035465;28;20668;-74
2023/10/16 06:16:50;;;;;;;9.80;2.60;;;;;;;;;;1033296;28;20655;-74
2023/10/16 06:17:23;;;;;;;0.85;0.85;;;;;;;;;;1035208;28;20764;-74
2023/10/16 06:17:54;;;;;;;14.93;4.30;;;;;;;;;;1033106;28;20069;-74
2023/10/16 06:18:27;;;;;;;1.67;1.55;;;;;;;;;;1034770;28;20025;-74
2023/10/16 06:18:59;;;;;;;2.33;1.38;;;;;;;;;;1033427;28;20600;-74
2023/10/16 06:19:32;;;;;;;7.75;3.03;;;;;;;;;;1032002;28;20320;-73
2023/10/16 06:20:04;;;;;;;1.58;1.38;;;;;;;;;;1030792;28;20562;-75
2023/10/16 06:20:40;;;;;;;0.32;0.32;;;;;;;;;;1032345;28;20034;-74
2023/10/16 06:21:14;;;;;;;2.13;1.65;;;;;;;;;;1030858;28;20121;-75
2023/10/16 06:21:46;;;;;;;2.25;2.00;;;;;;;;;;1030848;28;20481;-74
2023/10/16 06:22:16;;;;;;;5.25;3.22;;;;;;;;;;1031292;28;20028;-74
2023/10/16 06:22:51;;;;;;;0.80;0.80;;;;;;;;;;1036587;28;20580;-74
2023/10/16 06:23:22;;;;;;;1.65;1.25;;;;;;;;;;1037966;28;20028;-74
2023/10/16 06:23:53;;;;;;;6.25;2.75;;;;;;;;;;1034570;28;20079;-73
2023/10/16 06:24:28;;;;;;;5.72;2.90;;;;;;;;;;1034192;28;20397;-74
2023/10/16 06:24:59;;;;;;;1.75;1.27;;;;;;;;;;1035721;28;20072;-72
2023/10/16 06:25:33;;;;;;;7.68;2.97;;;;;;;;;;1037083;28;20134;-75
2023/10/16 06:26:07;;;;;;;1.40;1.27;;;;;;;;;;1031929;28;20101;-74
2023/10/16 06:26:38;;;;;;;9.00;1.70;;;;;;;;;;1033197;28;20119;-73
2023/10/16 06:27:18;;;;;;;2.28;1.60;;;;;;;;;;1030212;28;20441;-74
2023/10/16 06:27:49;;;;;;;7.85;2.50;;;;;;;;;;1032588;28;20034;-74
2023/10/16 06:28:21;;;;;;;1.20;1.13;;;;;;;;;;1036777;28;20033;-74
2023/10/16 06:28:52;;;;;;;1.23;1.17;;;;;;;;;;1037807;28;20025;-75
2023/10/16 06:29:26;;;;;;;0.40;0.40;;;;;;;;;;1035714;28;20029;-73
2023/10/16 06:29:57;;;;;;;6.50;4.82;;;;;;;;;;1036726;28;20034;-73
2023/10/16 06:30:27;;;;;;;3.55;2.78;;;;;;;;;;1033336;28;20132;-74
2023/10/16 06:30:58;;;;;;;2.92;2.70;;;;;;;;;;1039147;28;20071;-74
2023/10/16 06:31:35;;;;;;;11.02;2.45;;;;;;;;;;1034539;28;20080;-74
2023/10/16 06:32:07;;;;;;;1.00;0.98;;;;;;;;;;1039301;28;20159;-75
2023/10/16 06:32:38;;;;;;;1.75;1.65;;;;;;;;;;1038323;28;20032;-74
2023/10/16 06:33:14;;;;;;;8.70;1.70;;;;;;;;;;1037690;28;20048;-74
2023/10/16 06:33:45;;;;;;;2.70;2.50;;;;;;;;;;1038961;28;20127;-75
2023/10/16 06:34:16;;;;;;;1.48;1.38;;;;;;;;;;1034846;28;20119;-75
2023/10/16 06:34:50;;;;;;;1.65;1.55;;;;;;;;;;1039821;28;20490;-74
2023/10/16 06:35:21;;;;;;;2.33;1.48;;;;;;;;;;1038297;28;20923;-73
2023/10/16 06:35:54;;;;;;;2.33;1.60;;;;;;;;;;1037573;28;20095;-74
2023/10/16 06:36:25;;;;;;;2.88;2.15;;;;;;;;;;1039640;28;20710;-74
2023/10/16 06:36:59;;;;;;;7.82;0.77;;;;;;;;;;1036198;28;20045;-73
2023/10/16 06:37:33;;;;;;;0.28;0.28;;;;;;;;;;1036058;28;20444;-74
2023/10/16 06:38:11;;;;;;;7.55;1.65;;;;;;;;;;1033744;28;20393;-74
2023/10/16 06:38:43;;;;;;;10.40;2.20;;;;;;;;;;1034712;28;20026;-75
2023/10/16 06:39:23;;;;;;;2.85;1.65;;;;;;;;;;1030169;28;20445;-74
2023/10/16 06:39:58;;;;;;;3.17;2.92;;;;;;;;;;1035599;28;20028;-73
2023/10/16 06:40:32;;;;;;;1.13;1.02;;;;;;;;;;1034174;28;20025;-73
2023/10/16 06:41:03;;;;;;;0.25;0.25;;;;;;;;;;1034890;28;20543;-72
2023/10/16 06:41:33;;;;;;;0.82;0.82;;;;;;;;;;1037302;28;20022;-74
2023/10/16 06:42:04;;;;;;;2.88;1.27;;;;;;;;;;1035084;28;20029;-73
2023/10/16 06:42:35;;;;;;;5.65;2.40;;;;;;;;;;1035561;28;20018;-73
2023/10/16 06:43:15;;;;;;;1.63;1.52;;;;;;;;;;1039604;28;20017;-74
2023/10/16 06:43:47;;;;;;;0.88;0.52;;;;;;;;;;1034283;28;20834;-72
2023/10/16 06:44:21;;;;;;;0.20;0.20;;;;;;;;;;1039150;28;20648;-73
2023/10/16 06:44:56;;;;;;;0.77;0.77;;;;;;;;;;1041483;28;20518;-74
2023/10/16 06:45:40;;;;;;;0.30;0.30;;;;;;;;;;1037515;28;20457;-74
2023/10/16 06:46:11;;;;;;;4.05;3.50;;;;;;;;;;1033338;28;20123;-74
2023/10/16 06:46:41;;;;;;;3.22;2.92;;;;;;;;;;1036221;28;20034;-74
2023/10/16 06:47:12;;;;;;;17.08;4.55;;;;;;;;;;1033898;28;20022;-73
2023/10/16 06:47:47;;;;;;;2.90;1.10;;;;;;;;;;1030505;28;20165;-73
2023/10/16 06:48:22;;;;;;;1.90;1.75;;;;;;;;;;1027741;28;20040;-73
2023/10/16 06:48:57;;;;;;;0.90;0.88;;;;;;;;;;1029037;28;20181;-75
2023/10/16 06:49:38;;;;;;;2.92;1.85;;;;;;;;;;1026915;28;20055;-74
2023/10/16 06:51:03;;;;;;;29.77;3.03;;;;;;;;;;1039565;28;20037;-74
2023/10/16 06:51:35;;;;;;;5.80;0.98;;;;;;;;;;1038144;28;20487;-74
2023/10/16 06:52:12;;;;;;;4.53;1.33;;;;;;;;;;1040951;28;20025;-74
2023/10/16 06:52:45;;;;;;;2.53;1.67;;;;;;;;;;1037443;28;20032;-74
2023/10/16 06:53:15;;;;;;;8.77;2.30;;;;;;;;;;1038257;28;20029;-74
2023/10/16 06:53:46;;;;;;;6.80;1.10;;;;;;;;;;1038993;28;20774;-74
2023/10/16 06:54:17;;;;;;;1.48;0.95;;;;;;;;;;1038874;28;20079;-74
2023/10/16 06:54:48;;;;;;;2.97;2.75;;;;;;;;;;1038261;28;20639;-74
2023/10/16 06:55:21;;;;;;;3.60;2.05;;;;;;;;;;1039347;28;20029;-73
2023/10/16 06:55:52;;;;;;;1.48;1.38;;;;;;;;;;1033939;28;20044;-74
2023/10/16 06:56:35;;;;;;;3.83;3.28;;;;;;;;;;1036986;28;20477;-73
2023/10/16 06:57:15;;;;;;;0.25;0.25;;;;;;;;;;1036353;28;20121;-74
2023/10/16 06:57:46;;;;;;;0.82;0.80;;;;;;;;;;1040510;28;20025;-74
2023/10/16 06:58:21;;;;;;;4.30;2.47;;;;;;;;;;1040945;28;20020;-74
2023/10/16 06:58:52;;;;;;;0.77;0.77;;;;;;;;;;1039859;28;20070;-74
2023/10/16 06:59:27;;;;;;;3.45;2.13;;;;;;;;;;1036836;28;20498;-74
2023/10/16 06:59:57;;;;;;;2.58;1.95;;;;;;;;;;1033628;28;20100;-74
2023/10/16 07:00:32;;;;;;;3.35;2.35;;;;;;;;;;1028440;28;20542;-74
2023/10/16 07:01:04;;;;;;;1.25;1.15;;;;;;;;;;1027357;28;20513;-74
2023/10/16 07:01:35;;;;;;;2.33;1.60;;;;;;;;;;1033753;28;20072;-75
2023/10/16 07:02:06;;;;;;;3.13;2.85;;;;;;;;;;1033387;28;20274;-74
2023/10/16 07:02:37;;;;;;;1.25;1.20;;;;;;;;;;1037177;28;20358;-75
2023/10/16 07:03:12;;;;;;;0.65;0.65;;;;;;;;;;1040900;28;20079;-74
2023/10/16 07:03:43;;;;;;;1.30;1.13;;;;;;;;;;1038884;28;20029;-74
2023/10/16 07:04:14;;;;;;;1.85;1.67;;;;;;;;;;1039737;28;20024;-74
2023/10/16 07:04:46;;;;;;;9.73;1.85;;;;;;;;;;1034833;28;20033;-75
2023/10/16 07:05:22;;;;;;;4.65;3.85;;;;;;;;;;1036203;28;20111;-75
2023/10/16 07:05:55;;;;;;;2.72;2.47;;;;;;;;;;1033836;28;20034;-75
2023/10/16 07:06:36;;;;;;;1.00;1.00;;;;;;;;;;1031748;28;20018;-74
2023/10/16 07:07:14;;;;;;;1.95;1.50;;;;;;;;;;1036940;28;20536;-74
2023/10/16 07:07:47;;;;;;;0.98;0.75;;;;;;;;;;1030484;28;20501;-74
2023/10/16 07:08:19;;;;;;;18.98;4.07;;;;;;;;;;1030842;28;20493;-75
2023/10/16 07:08:54;;;;;;;4.97;3.70;;;;;;;;;;1032565;28;20022;-74
2023/10/16 07:09:37;;;;;;;3.17;2.42;;;;;;;;;;1035796;28;20149;-74
2023/10/16 07:10:13;;;;;;;9.32;1.42;;;;;;;;;;1038735;28;20025;-74
2023/10/16 07:10:51;;;;;;;1.92;1.33;;;;;;;;;;1037214;28;20029;-73
2023/10/16 07:11:21;;;;;;;3.20;2.72;;;;;;;;;;1037217;28;20473;-73
2023/10/16 07:11:54;;;;;;;1.73;1.63;;;;;;;;;;1032177;28;20022;-73
2023/10/16 07:12:25;;;;;;;3.83;2.83;;;;;;;;;;1031817;28;20580;-73
2023/10/16 07:12:59;;;;;;;3.25;1.85;;;;;;;;;;1036426;28;20037;-73
2023/10/16 07:13:38;;;;;;;1.13;0.90;;;;;;;;;;1040088;28;20039;-73
2023/10/16 07:14:17;;;;;;;0.35;0.35;;;;;;;;;;1038630;28;20033;-73
2023/10/16 07:15:01;;;;;;;7.68;3.58;;;;;;;;;;1040209;28;20032;-73
2023/10/16 07:15:32;;;;;;;0.85;0.85;;;;;;;;;;1036235;28;20064;-73
2023/10/16 07:16:04;;;;;;;1.65;1.55;;;;;;;;;;1037168;28;20509;-74
2023/10/16 07:16:35;;;;;;;4.18;1.90;;;;;;;;;;1034308;28;20060;-73
2023/10/16 07:17:06;;;;;;;1.27;1.13;;;;;;;;;;1033993;28;20036;-73
2023/10/16 07:17:37;;;;;;;8.38;1.20;;;;;;;;;;1037027;28;20033;-74
2023/10/16 07:18:13;;;;;;;12.43;2.35;;;;;;;;;;1036160;28;20026;-73
2023/10/16 07:18:45;;;;;;;6.50;2.55;;;;;;;;;;1036499;28;20028;-74
2023/10/16 07:19:16;;;;;;;2.10;1.90;;;;;;;;;;1030797;28;20033;-75
2023/10/16 07:19:47;;;;;;;2.30;1.45;;;;;;;;;;1032296;28;20642;-72
2023/10/16 07:20:27;;;;;;;2.40;2.03;;;;;;;;;;1034882;28;20087;-71
2023/10/16 07:21:29;;;;;;;7.40;1.75;;;;;;;;;;1039637;28;20087;-72
2023/10/16 07:22:00;;;;;;;1.17;1.13;;;;;;;;;;1041571;28;20614;-74
2023/10/16 07:22:32;;;;;;;1.77;1.67;;;;;;;;;;1041580;28;20024;-73
2023/10/16 07:23:10;;;;;;;2.17;1.30;;;;;;;;;;1041432;28;20032;-74
2023/10/16 07:23:42;;;;;;;2.13;1.23;;;;;;;;;;1040706;28;20028;-75
2023/10/16 07:24:15;;;;;;;0.65;0.65;;;;;;;;;;1040377;28;20791;-74
2023/10/16 07:24:46;;;;;;;4.25;3.85;;;;;;;;;;1037798;28;20063;-74
2023/10/16 07:25:23;;;;;;;0.77;0.77;;;;;;;;;;1033671;28;20113;-73
2023/10/16 07:26:26;;;;;;;3.67;1.83;;;;;;;;;;1036967;28;20111;-74
2023/10/16 07:26:59;;;;;;;11.32;2.17;;;;;;;;;;1036674;28;20076;-73
2023/10/16 07:27:31;;;;;;;5.75;4.80;;;;;;;;;;1038960;28;20068;-73
2023/10/16 07:28:04;;;;;;;1.55;1.45;;;;;;;;;;1040653;28;20021;-74
2023/10/16 07:28:35;;;;;;;2.22;2.13;;;;;;;;;;1039469;28;20115;-73
2023/10/16 07:29:06;;;;;;;1.30;1.13;;;;;;;;;;1040409;28;20043;-73
2023/10/16 07:29:38;;;;;;;7.15;3.10;;;;;;;;;;1036060;28;20041;-73
2023/10/16 07:30:21;;;;;;;0.40;0.40;;;;;;;;;;1036443;28;20045;-73
2023/10/16 07:30:56;;;;;;;11.05;4.57;;;;;;;;;;1037727;28;20030;-74
2023/10/16 07:31:27;;;;;;;2.05;1.05;;;;;;;;;;1039165;28;20137;-73
2023/10/16 07:31:57;;;;;;;6.88;3.63;;;;;;;;;;1036227;28;20521;-73
2023/10/16 07:32:28;;;;;;;0.30;0.30;;;;;;;;;;1032876;28;20076;-73
2023/10/16 07:32:58;;;;;;;1.67;0.85;;;;;;;;;;1029580;28;20180;-72
2023/10/16 07:33:29;;;;;;;3.90;2.53;;;;;;;;;;1031497;28;20520;-72
2023/10/16 07:34:04;;;;;;;7.25;3.47;;;;;;;;;;1032669;28;20346;-73
2023/10/16 07:34:40;;;;;;;0.70;0.70;;;;;;;;;;1028571;28;20623;-75
2023/10/16 07:35:17;;;;;;;2.58;1.35;;;;;;;;;;1030806;28;20125;-73
2023/10/16 07:35:49;;;;;;;3.47;1.63;;;;;;;;;;1034627;28;20101;-74
2023/10/16 07:36:23;;;;;;;12.65;4.68;;;;;;;;;;1035041;28;20392;-74
2023/10/16 07:36:55;;;;;;;3.78;3.45;;;;;;;;;;1038152;28;20068;-73
2023/10/16 07:37:25;;;;;;;1.88;1.15;;;;;;;;;;1035853;28;20062;-73
2023/10/16 07:37:58;;;;;;;2.25;2.10;;;;;;;;;;1036693;28;20033;-74
2023/10/16 07:38:29;;;;;;;6.68;2.03;;;;;;;;;;1037996;28;20484;-74
2023/10/16 07:39:00;;;;;;;2.50;1.45;;;;;;;;;;1033861;28;20145;-74
2023/10/16 07:39:34;;;;;;;4.82;2.60;;;;;;;;;;1034071;28;20440;-74
2023/10/16 07:40:07;;;;;;;1.90;1.80;;;;;;;;;;1034686;28;20131;-73
2023/10/16 07:40:39;;;;;;;0.35;0.35;;;;;;;;;;1034444;28;20052;-73
2023/10/16 07:41:18;;;;;;;4.50;1.55;;;;;;;;;;1038316;28;20127;-73
2023/10/16 07:41:52;;;;;;;1.85;1.73;;;;;;;;;;1035752;28;20068;-74
2023/10/16 07:42:24;;;;;;;0.82;0.82;;;;;;;;;;1038261;28;20611;-75
2023/10/16 07:42:55;;;;;;;1.27;0.95;;;;;;;;;;1042377;28;20396;-74
2023/10/16 07:43:26;;;;;;;1.17;1.10;;;;;;;;;;1039000;28;20037;-75
2023/10/16 07:43:57;;;;;;;1.85;1.73;;;;;;;;;;1040823;28;20048;-76
2023/10/16 07:44:28;;;;;;;2.90;0.85;;;;;;;;;;1043316;28;20028;-73
2023/10/16 07:44:59;;;;;;;2.85;2.65;;;;;;;;;;1039002;28;20064;-74
2023/10/16 07:45:33;;;;;;;0.85;0.85;;;;;;;;;;1038689;28;20526;-73
2023/10/16 07:46:44;;;;;;;4.90;2.50;;;;;;;;;;1038745;28;20505;-74
2023/10/16 07:47:18;;;;;;;2.70;1.50;;;;;;;;;;1038279;28;20595;-74
2023/10/16 07:47:50;;;;;;;1.70;1.60;;;;;;;;;;1037986;28;20028;-72
2023/10/16 07:48:21;;;;;;;3.33;2.28;;;;;;;;;;1037700;28;20087;-73
2023/10/16 07:48:52;;;;;;;6.32;2.60;;;;;;;;;;1034684;28;20485;-73
2023/10/16 07:49:25;;;;;;;3.92;1.70;;;;;;;;;;1036411;28;20057;-73